sensor_id;sensor_type;location;lat;lon;timestamp;P1;durP1;ratioP1;P2;durP2;ratioP2
73678;SDS011;61978;52.742;16.962;2023-07-13T00:02:07;10.00;;;3.00;;
73678;SDS011;61978;52.742;16.962;2023-07-13T00:04:34;6.50;;;3.00;;
73678;SDS011;61978;52.742;16.962;2023-07-13T00:07:00;3.90;;;3.10;;
73678;SDS011;61978;52.742;16.962;2023-07-13T00:09:25;6.50;;;2.90;;
73678;SDS011;61978;52.742;16.962;2023-07-13T00:11:53;8.10;;;2.60;;
73678;SDS011;61978;52.742;16.962;2023-07-13T00:14:19;6.70;;;3.60;;
73678;SDS011;61978;52.742;16.962;2023-07-13T00:16:45;8.00;;;2.80;;
73678;SDS011;61978;52.742;16.962;2023-07-13T00:19:12;4.90;;;2.80;;
73678;SDS011;61978;52.742;16.962;2023-07-13T00:21:38;3.90;;;3.00;;
73678;SDS011;61978;52.742;16.962;2023-07-13T00:24:05;7.80;;;4.20;;
73678;SDS011;61978;52.742;16.962;2023-07-13T00:26:31;6.00;;;3.00;;
73678;SDS011;61978;52.742;16.962;2023-07-13T00:28:58;5.80;;;2.60;;
73678;SDS011;61978;52.742;16.962;2023-07-13T00:31:24;7.50;;;2.60;;
73678;SDS011;61978;52.742;16.962;2023-07-13T00:33:50;4.10;;;2.60;;
73678;SDS011;61978;52.742;16.962;2023-07-13T00:36:17;8.60;;;2.30;;
73678;SDS011;61978;52.742;16.962;2023-07-13T00:38:43;7.40;;;2.30;;
73678;SDS011;61978;52.742;16.962;2023-07-13T00:41:09;7.10;;;2.90;;
73678;SDS011;61978;52.742;16.962;2023-07-13T00:43:35;8.60;;;2.30;;
73678;SDS011;61978;52.742;16.962;2023-07-13T00:48:27;9.80;;;2.70;;
73678;SDS011;61978;52.742;16.962;2023-07-13T00:50:55;7.30;;;2.90;;
73678;SDS011;61978;52.742;16.962;2023-07-13T00:53:21;7.70;;;2.90;;
73678;SDS011;61978;52.742;16.962;2023-07-13T00:55:48;6.30;;;4.10;;
73678;SDS011;61978;52.742;16.962;2023-07-13T00:58:15;5.40;;;3.10;;
73678;SDS011;61978;52.742;16.962;2023-07-13T01:00:41;6.90;;;3.20;;
73678;SDS011;61978;52.742;16.962;2023-07-13T01:03:07;7.50;;;4.70;;
73678;SDS011;61978;52.742;16.962;2023-07-13T01:05:34;8.10;;;4.70;;
73678;SDS011;61978;52.742;16.962;2023-07-13T01:08:01;9.00;;;4.70;;
73678;SDS011;61978;52.742;16.962;2023-07-13T01:10:27;8.70;;;5.10;;
73678;SDS011;61978;52.742;16.962;2023-07-13T01:12:53;5.90;;;4.50;;
73678;SDS011;61978;52.742;16.962;2023-07-13T01:15:34;8.30;;;5.20;;
73678;SDS011;61978;52.742;16.962;2023-07-13T01:18:00;7.90;;;4.20;;
73678;SDS011;61978;52.742;16.962;2023-07-13T01:20:27;9.00;;;5.10;;
73678;SDS011;61978;52.742;16.962;2023-07-13T01:22:53;8.10;;;4.80;;
73678;SDS011;61978;52.742;16.962;2023-07-13T01:25:19;7.30;;;4.90;;
73678;SDS011;61978;52.742;16.962;2023-07-13T01:27:45;9.70;;;4.50;;
73678;SDS011;61978;52.742;16.962;2023-07-13T01:30:11;8.00;;;4.40;;
73678;SDS011;61978;52.742;16.962;2023-07-13T01:32:36;6.30;;;3.80;;
73678;SDS011;61978;52.742;16.962;2023-07-13T01:35:02;8.70;;;4.30;;
73678;SDS011;61978;52.742;16.962;2023-07-13T01:37:28;7.30;;;4.00;;
73678;SDS011;61978;52.742;16.962;2023-07-13T01:39:58;8.30;;;4.20;;
73678;SDS011;61978;52.742;16.962;2023-07-13T01:42:24;9.20;;;4.10;;
73678;SDS011;61978;52.742;16.962;2023-07-13T01:44:50;9.10;;;4.60;;
73678;SDS011;61978;52.742;16.962;2023-07-13T01:47:16;7.40;;;3.60;;
73678;SDS011;61978;52.742;16.962;2023-07-13T01:49:41;5.60;;;4.00;;
73678;SDS011;61978;52.742;16.962;2023-07-13T01:52:07;9.60;;;3.60;;
73678;SDS011;61978;52.742;16.962;2023-07-13T01:54:33;8.50;;;3.80;;
73678;SDS011;61978;52.742;16.962;2023-07-13T01:56:59;5.90;;;3.70;;
73678;SDS011;61978;52.742;16.962;2023-07-13T01:59:25;10.10;;;3.60;;
73678;SDS011;61978;52.742;16.962;2023-07-13T02:01:50;6.10;;;3.50;;
73678;SDS011;61978;52.742;16.962;2023-07-13T02:04:16;10.70;;;4.00;;
73678;SDS011;61978;52.742;16.962;2023-07-13T02:06:41;9.90;;;3.30;;
73678;SDS011;61978;52.742;16.962;2023-07-13T02:09:07;9.50;;;4.70;;
73678;SDS011;61978;52.742;16.962;2023-07-13T02:11:33;8.20;;;4.70;;
73678;SDS011;61978;52.742;16.962;2023-07-13T02:13:59;8.50;;;4.10;;
73678;SDS011;61978;52.742;16.962;2023-07-13T02:16:26;8.70;;;4.30;;
73678;SDS011;61978;52.742;16.962;2023-07-13T02:18:51;11.40;;;4.20;;
73678;SDS011;61978;52.742;16.962;2023-07-13T02:21:17;10.70;;;4.70;;
73678;SDS011;61978;52.742;16.962;2023-07-13T02:23:43;14.60;;;4.50;;
73678;SDS011;61978;52.742;16.962;2023-07-13T02:26:10;20.20;;;4.70;;
73678;SDS011;61978;52.742;16.962;2023-07-13T02:28:36;12.90;;;4.50;;
73678;SDS011;61978;52.742;16.962;2023-07-13T02:31:08;10.40;;;4.30;;
73678;SDS011;61978;52.742;16.962;2023-07-13T02:33:34;18.00;;;5.00;;
73678;SDS011;61978;52.742;16.962;2023-07-13T02:36:00;11.10;;;5.60;;
73678;SDS011;61978;52.742;16.962;2023-07-13T02:38:26;10.40;;;6.60;;
73678;SDS011;61978;52.742;16.962;2023-07-13T02:40:52;13.70;;;6.40;;
73678;SDS011;61978;52.742;16.962;2023-07-13T02:43:18;11.80;;;6.80;;
73678;SDS011;61978;52.742;16.962;2023-07-13T02:45:46;17.60;;;7.20;;
73678;SDS011;61978;52.742;16.962;2023-07-13T02:48:13;13.70;;;7.20;;
73678;SDS011;61978;52.742;16.962;2023-07-13T02:50:39;13.00;;;6.60;;
73678;SDS011;61978;52.742;16.962;2023-07-13T02:53:04;12.30;;;6.90;;
73678;SDS011;61978;52.742;16.962;2023-07-13T02:55:33;7.90;;;5.70;;
73678;SDS011;61978;52.742;16.962;2023-07-13T02:57:59;9.50;;;5.60;;
73678;SDS011;61978;52.742;16.962;2023-07-13T03:00:24;8.70;;;6.50;;
73678;SDS011;61978;52.742;16.962;2023-07-13T03:02:50;11.60;;;6.20;;
73678;SDS011;61978;52.742;16.962;2023-07-13T03:05:16;19.10;;;7.80;;
73678;SDS011;61978;52.742;16.962;2023-07-13T03:07:41;10.80;;;5.80;;
73678;SDS011;61978;52.742;16.962;2023-07-13T03:10:07;16.70;;;6.60;;
73678;SDS011;61978;52.742;16.962;2023-07-13T03:12:39;13.80;;;6.90;;
73678;SDS011;61978;52.742;16.962;2023-07-13T03:15:07;10.90;;;6.50;;
73678;SDS011;61978;52.742;16.962;2023-07-13T03:17:35;13.30;;;6.90;;
73678;SDS011;61978;52.742;16.962;2023-07-13T03:20:01;11.60;;;6.50;;
73678;SDS011;61978;52.742;16.962;2023-07-13T03:22:27;10.80;;;6.10;;
73678;SDS011;61978;52.742;16.962;2023-07-13T03:24:54;9.20;;;6.40;;
73678;SDS011;61978;52.742;16.962;2023-07-13T03:27:20;16.70;;;7.20;;
73678;SDS011;61978;52.742;16.962;2023-07-13T03:29:46;10.80;;;7.20;;
73678;SDS011;61978;52.742;16.962;2023-07-13T03:32:13;11.30;;;7.70;;
73678;SDS011;61978;52.742;16.962;2023-07-13T03:34:39;9.00;;;7.60;;
73678;SDS011;61978;52.742;16.962;2023-07-13T03:37:05;19.40;;;8.00;;
73678;SDS011;61978;52.742;16.962;2023-07-13T03:39:30;14.50;;;7.40;;
73678;SDS011;61978;52.742;16.962;2023-07-13T03:41:57;13.80;;;7.10;;
73678;SDS011;61978;52.742;16.962;2023-07-13T03:44:22;14.60;;;7.60;;
73678;SDS011;61978;52.742;16.962;2023-07-13T03:46:51;13.70;;;7.00;;
73678;SDS011;61978;52.742;16.962;2023-07-13T03:49:17;15.10;;;7.30;;
73678;SDS011;61978;52.742;16.962;2023-07-13T03:51:43;15.20;;;7.80;;
73678;SDS011;61978;52.742;16.962;2023-07-13T03:54:09;19.40;;;8.50;;
73678;SDS011;61978;52.742;16.962;2023-07-13T03:56:34;12.40;;;8.40;;
73678;SDS011;61978;52.742;16.962;2023-07-13T03:59:01;20.50;;;8.90;;
73678;SDS011;61978;52.742;16.962;2023-07-13T04:01:28;12.40;;;7.70;;
73678;SDS011;61978;52.742;16.962;2023-07-13T04:03:54;14.60;;;9.30;;
73678;SDS011;61978;52.742;16.962;2023-07-13T04:06:23;11.90;;;8.80;;
73678;SDS011;61978;52.742;16.962;2023-07-13T04:08:51;12.30;;;9.20;;
73678;SDS011;61978;52.742;16.962;2023-07-13T04:11:17;16.50;;;8.40;;
73678;SDS011;61978;52.742;16.962;2023-07-13T04:13:43;18.00;;;9.00;;
73678;SDS011;61978;52.742;16.962;2023-07-13T04:16:11;14.60;;;8.50;;
73678;SDS011;61978;52.742;16.962;2023-07-13T04:18:36;12.70;;;9.00;;
73678;SDS011;61978;52.742;16.962;2023-07-13T04:21:02;17.10;;;8.80;;
73678;SDS011;61978;52.742;16.962;2023-07-13T04:23:27;11.80;;;9.10;;
73678;SDS011;61978;52.742;16.962;2023-07-13T04:25:53;14.00;;;8.40;;
73678;SDS011;61978;52.742;16.962;2023-07-13T04:28:22;11.90;;;9.20;;
73678;SDS011;61978;52.742;16.962;2023-07-13T04:30:48;14.80;;;9.10;;
73678;SDS011;61978;52.742;16.962;2023-07-13T04:33:14;20.10;;;9.10;;
73678;SDS011;61978;52.742;16.962;2023-07-13T04:35:40;16.60;;;8.70;;
73678;SDS011;61978;52.742;16.962;2023-07-13T04:38:05;19.30;;;10.20;;
73678;SDS011;61978;52.742;16.962;2023-07-13T04:40:32;16.90;;;8.80;;
73678;SDS011;61978;52.742;16.962;2023-07-13T04:42:57;14.10;;;9.00;;
73678;SDS011;61978;52.742;16.962;2023-07-13T04:45:24;15.20;;;8.20;;
73678;SDS011;61978;52.742;16.962;2023-07-13T04:47:49;18.50;;;9.00;;
73678;SDS011;61978;52.742;16.962;2023-07-13T04:50:15;13.90;;;9.40;;
73678;SDS011;61978;52.742;16.962;2023-07-13T04:52:45;12.50;;;9.00;;
73678;SDS011;61978;52.742;16.962;2023-07-13T04:55:10;16.90;;;8.90;;
73678;SDS011;61978;52.742;16.962;2023-07-13T04:57:36;11.40;;;8.80;;
73678;SDS011;61978;52.742;16.962;2023-07-13T05:00:03;10.80;;;9.00;;
73678;SDS011;61978;52.742;16.962;2023-07-13T05:02:30;14.50;;;8.50;;
73678;SDS011;61978;52.742;16.962;2023-07-13T05:04:57;22.20;;;9.00;;
73678;SDS011;61978;52.742;16.962;2023-07-13T05:07:23;13.20;;;8.70;;
73678;SDS011;61978;52.742;16.962;2023-07-13T05:09:49;13.00;;;8.40;;
73678;SDS011;61978;52.742;16.962;2023-07-13T05:12:14;12.50;;;8.50;;
73678;SDS011;61978;52.742;16.962;2023-07-13T05:14:40;11.40;;;7.60;;
73678;SDS011;61978;52.742;16.962;2023-07-13T05:17:06;16.70;;;8.00;;
73678;SDS011;61978;52.742;16.962;2023-07-13T05:19:32;17.00;;;8.00;;
73678;SDS011;61978;52.742;16.962;2023-07-13T05:21:57;15.50;;;7.90;;
73678;SDS011;61978;52.742;16.962;2023-07-13T05:24:23;14.00;;;7.90;;
73678;SDS011;61978;52.742;16.962;2023-07-13T05:26:49;21.60;;;8.20;;
73678;SDS011;61978;52.742;16.962;2023-07-13T05:29:15;20.40;;;7.00;;
73678;SDS011;61978;52.742;16.962;2023-07-13T05:31:40;13.20;;;7.30;;
73678;SDS011;61978;52.742;16.962;2023-07-13T05:34:06;13.70;;;6.40;;
73678;SDS011;61978;52.742;16.962;2023-07-13T05:36:31;11.30;;;6.80;;
73678;SDS011;61978;52.742;16.962;2023-07-13T05:38:57;11.30;;;6.90;;
73678;SDS011;61978;52.742;16.962;2023-07-13T05:41:23;10.00;;;5.40;;
73678;SDS011;61978;52.742;16.962;2023-07-13T05:43:48;16.00;;;5.50;;
73678;SDS011;61978;52.742;16.962;2023-07-13T05:46:14;12.30;;;5.70;;
73678;SDS011;61978;52.742;16.962;2023-07-13T05:48:39;8.10;;;5.20;;
73678;SDS011;61978;52.742;16.962;2023-07-13T05:51:05;13.90;;;5.20;;
73678;SDS011;61978;52.742;16.962;2023-07-13T05:53:30;10.20;;;5.30;;
73678;SDS011;61978;52.742;16.962;2023-07-13T05:55:56;16.20;;;5.20;;
73678;SDS011;61978;52.742;16.962;2023-07-13T05:58:22;14.40;;;5.20;;
73678;SDS011;61978;52.742;16.962;2023-07-13T06:00:47;8.40;;;4.60;;
73678;SDS011;61978;52.742;16.962;2023-07-13T06:03:13;10.60;;;4.20;;
73678;SDS011;61978;52.742;16.962;2023-07-13T06:05:39;12.00;;;3.70;;
73678;SDS011;61978;52.742;16.962;2023-07-13T06:08:06;9.90;;;3.70;;
73678;SDS011;61978;52.742;16.962;2023-07-13T06:10:35;10.50;;;3.90;;
73678;SDS011;61978;52.742;16.962;2023-07-13T06:13:01;7.90;;;3.20;;
73678;SDS011;61978;52.742;16.962;2023-07-13T06:15:28;5.00;;;2.70;;
73678;SDS011;61978;52.742;16.962;2023-07-13T06:17:54;10.70;;;3.00;;
73678;SDS011;61978;52.742;16.962;2023-07-13T06:20:20;6.60;;;2.50;;
73678;SDS011;61978;52.742;16.962;2023-07-13T06:22:46;6.30;;;3.00;;
73678;SDS011;61978;52.742;16.962;2023-07-13T06:25:11;10.40;;;3.00;;
73678;SDS011;61978;52.742;16.962;2023-07-13T06:27:37;8.50;;;2.80;;
73678;SDS011;61978;52.742;16.962;2023-07-13T06:30:03;8.50;;;3.20;;
73678;SDS011;61978;52.742;16.962;2023-07-13T06:32:28;13.60;;;3.30;;
73678;SDS011;61978;52.742;16.962;2023-07-13T06:34:55;7.80;;;3.00;;
73678;SDS011;61978;52.742;16.962;2023-07-13T06:37:21;5.00;;;2.90;;
73678;SDS011;61978;52.742;16.962;2023-07-13T06:39:46;8.20;;;3.20;;
73678;SDS011;61978;52.742;16.962;2023-07-13T06:42:12;13.20;;;4.00;;
73678;SDS011;61978;52.742;16.962;2023-07-13T06:44:38;25.70;;;10.00;;
73678;SDS011;61978;52.742;16.962;2023-07-13T06:47:03;10.90;;;4.00;;
73678;SDS011;61978;52.742;16.962;2023-07-13T06:49:29;179.10;;;44.90;;
73678;SDS011;61978;52.742;16.962;2023-07-13T06:51:55;22.80;;;6.30;;
73678;SDS011;61978;52.742;16.962;2023-07-13T06:54:20;9.40;;;2.60;;
73678;SDS011;61978;52.742;16.962;2023-07-13T06:56:46;8.90;;;2.80;;
73678;SDS011;61978;52.742;16.962;2023-07-13T06:59:12;9.60;;;2.70;;
73678;SDS011;61978;52.742;16.962;2023-07-13T07:01:37;8.40;;;3.40;;
73678;SDS011;61978;52.742;16.962;2023-07-13T07:04:03;4.50;;;2.10;;
73678;SDS011;61978;52.742;16.962;2023-07-13T07:06:29;5.40;;;1.70;;
73678;SDS011;61978;52.742;16.962;2023-07-13T07:08:55;5.70;;;2.00;;
73678;SDS011;61978;52.742;16.962;2023-07-13T07:11:24;6.50;;;2.10;;
73678;SDS011;61978;52.742;16.962;2023-07-13T07:13:51;9.70;;;2.10;;
73678;SDS011;61978;52.742;16.962;2023-07-13T07:16:17;7.00;;;1.80;;
73678;SDS011;61978;52.742;16.962;2023-07-13T07:18:43;7.50;;;1.80;;
73678;SDS011;61978;52.742;16.962;2023-07-13T07:21:09;5.50;;;2.30;;
73678;SDS011;61978;52.742;16.962;2023-07-13T07:23:35;8.20;;;2.00;;
73678;SDS011;61978;52.742;16.962;2023-07-13T07:26:00;10.30;;;2.20;;
73678;SDS011;61978;52.742;16.962;2023-07-13T07:28:26;5.10;;;1.80;;
73678;SDS011;61978;52.742;16.962;2023-07-13T07:30:54;4.90;;;2.00;;
73678;SDS011;61978;52.742;16.962;2023-07-13T07:33:20;7.30;;;2.00;;
73678;SDS011;61978;52.742;16.962;2023-07-13T07:35:46;9.70;;;2.30;;
73678;SDS011;61978;52.742;16.962;2023-07-13T07:38:11;6.80;;;2.20;;
73678;SDS011;61978;52.742;16.962;2023-07-13T07:40:37;9.10;;;4.10;;
73678;SDS011;61978;52.742;16.962;2023-07-13T07:43:03;5.90;;;2.70;;
73678;SDS011;61978;52.742;16.962;2023-07-13T07:45:29;6.30;;;2.20;;
73678;SDS011;61978;52.742;16.962;2023-07-13T07:47:54;6.30;;;1.60;;
73678;SDS011;61978;52.742;16.962;2023-07-13T07:50:24;5.00;;;1.90;;
73678;SDS011;61978;52.742;16.962;2023-07-13T07:52:50;10.90;;;2.50;;
73678;SDS011;61978;52.742;16.962;2023-07-13T07:55:16;5.60;;;2.00;;
73678;SDS011;61978;52.742;16.962;2023-07-13T07:57:41;4.10;;;2.20;;
73678;SDS011;61978;52.742;16.962;2023-07-13T08:00:07;7.30;;;2.10;;
73678;SDS011;61978;52.742;16.962;2023-07-13T08:02:40;4.80;;;1.60;;
73678;SDS011;61978;52.742;16.962;2023-07-13T08:05:09;4.40;;;2.10;;
73678;SDS011;61978;52.742;16.962;2023-07-13T08:07:36;4.40;;;1.50;;
73678;SDS011;61978;52.742;16.962;2023-07-13T08:10:02;10.10;;;2.20;;
73678;SDS011;61978;52.742;16.962;2023-07-13T08:12:28;5.40;;;1.80;;
73678;SDS011;61978;52.742;16.962;2023-07-13T08:14:54;7.30;;;2.10;;
73678;SDS011;61978;52.742;16.962;2023-07-13T08:17:23;5.70;;;1.70;;
73678;SDS011;61978;52.742;16.962;2023-07-13T08:19:48;6.60;;;1.60;;
73678;SDS011;61978;52.742;16.962;2023-07-13T08:22:14;5.70;;;1.70;;
73678;SDS011;61978;52.742;16.962;2023-07-13T08:24:41;4.80;;;1.60;;
73678;SDS011;61978;52.742;16.962;2023-07-13T08:29:47;10.30;;;1.70;;
73678;SDS011;61978;52.742;16.962;2023-07-13T08:32:13;12.80;;;3.70;;
73678;SDS011;61978;52.742;16.962;2023-07-13T08:34:39;7.60;;;1.70;;
73678;SDS011;61978;52.742;16.962;2023-07-13T08:37:06;4.70;;;1.70;;
73678;SDS011;61978;52.742;16.962;2023-07-13T08:39:32;3.60;;;1.70;;
73678;SDS011;61978;52.742;16.962;2023-07-13T08:42:00;11.00;;;1.60;;
73678;SDS011;61978;52.742;16.962;2023-07-13T08:47:11;60.20;;;4.10;;
73678;SDS011;61978;52.742;16.962;2023-07-13T08:49:38;3.30;;;1.50;;
73678;SDS011;61978;52.742;16.962;2023-07-13T08:52:11;16.60;;;2.10;;
73678;SDS011;61978;52.742;16.962;2023-07-13T08:54:41;2.30;;;1.60;;
73678;SDS011;61978;52.742;16.962;2023-07-13T08:57:18;15.40;;;1.60;;
73678;SDS011;61978;52.742;16.962;2023-07-13T08:59:45;5.80;;;1.30;;
73678;SDS011;61978;52.742;16.962;2023-07-13T09:04:50;5.80;;;1.50;;
73678;SDS011;61978;52.742;16.962;2023-07-13T09:10:11;7.30;;;1.60;;
73678;SDS011;61978;52.742;16.962;2023-07-13T09:15:32;4.90;;;1.40;;
73678;SDS011;61978;52.742;16.962;2023-07-13T09:18:03;4.50;;;1.40;;
73678;SDS011;61978;52.742;16.962;2023-07-13T09:20:44;8.20;;;1.60;;
73678;SDS011;61978;52.742;16.962;2023-07-13T09:23:13;3.40;;;1.40;;
73678;SDS011;61978;52.742;16.962;2023-07-13T09:25:39;2.20;;;1.50;;
73678;SDS011;61978;52.742;16.962;2023-07-13T09:28:15;4.60;;;1.90;;
73678;SDS011;61978;52.742;16.962;2023-07-13T09:33:20;4.20;;;1.40;;
73678;SDS011;61978;52.742;16.962;2023-07-13T09:35:46;3.20;;;1.20;;
73678;SDS011;61978;52.742;16.962;2023-07-13T09:38:14;5.00;;;1.30;;
73678;SDS011;61978;52.742;16.962;2023-07-13T09:40:43;3.30;;;1.30;;
73678;SDS011;61978;52.742;16.962;2023-07-13T09:43:13;2.20;;;1.10;;
73678;SDS011;61978;52.742;16.962;2023-07-13T09:45:39;4.50;;;1.90;;
73678;SDS011;61978;52.742;16.962;2023-07-13T09:48:15;3.10;;;1.30;;
73678;SDS011;61978;52.742;16.962;2023-07-13T09:50:42;3.40;;;1.50;;
73678;SDS011;61978;52.742;16.962;2023-07-13T09:53:18;4.40;;;1.10;;
73678;SDS011;61978;52.742;16.962;2023-07-13T09:55:47;18.90;;;2.20;;
73678;SDS011;61978;52.742;16.962;2023-07-13T09:58:18;2.70;;;1.40;;
73678;SDS011;61978;52.742;16.962;2023-07-13T10:00:58;4.80;;;1.80;;
73678;SDS011;61978;52.742;16.962;2023-07-13T10:03:26;2.90;;;1.40;;
73678;SDS011;61978;52.742;16.962;2023-07-13T10:05:52;4.20;;;1.30;;
73678;SDS011;61978;52.742;16.962;2023-07-13T10:10:44;3.30;;;1.30;;
73678;SDS011;61978;52.742;16.962;2023-07-13T10:13:29;1.50;;;0.90;;
73678;SDS011;61978;52.742;16.962;2023-07-13T10:15:55;2.50;;;1.20;;
73678;SDS011;61978;52.742;16.962;2023-07-13T10:18:22;7.50;;;1.80;;
73678;SDS011;61978;52.742;16.962;2023-07-13T10:20:48;5.10;;;1.60;;
73678;SDS011;61978;52.742;16.962;2023-07-13T10:23:21;2.30;;;1.00;;
73678;SDS011;61978;52.742;16.962;2023-07-13T10:25:49;2.50;;;1.20;;
73678;SDS011;61978;52.742;16.962;2023-07-13T10:31:12;2.30;;;1.00;;
73678;SDS011;61978;52.742;16.962;2023-07-13T10:33:38;3.10;;;0.80;;
73678;SDS011;61978;52.742;16.962;2023-07-13T10:38:48;4.20;;;1.50;;
73678;SDS011;61978;52.742;16.962;2023-07-13T10:41:20;2.00;;;1.10;;
73678;SDS011;61978;52.742;16.962;2023-07-13T10:43:49;3.80;;;1.40;;
73678;SDS011;61978;52.742;16.962;2023-07-13T10:46:17;8.40;;;1.70;;
73678;SDS011;61978;52.742;16.962;2023-07-13T10:48:45;4.50;;;0.90;;
73678;SDS011;61978;52.742;16.962;2023-07-13T10:51:30;6.90;;;1.60;;
73678;SDS011;61978;52.742;16.962;2023-07-13T10:56:38;3.60;;;1.30;;
73678;SDS011;61978;52.742;16.962;2023-07-13T11:01:39;4.20;;;1.00;;
73678;SDS011;61978;52.742;16.962;2023-07-13T11:04:05;9.00;;;1.70;;
73678;SDS011;61978;52.742;16.962;2023-07-13T11:06:33;2.60;;;1.00;;
73678;SDS011;61978;52.742;16.962;2023-07-13T11:09:19;2.60;;;1.20;;
73678;SDS011;61978;52.742;16.962;2023-07-13T11:11:56;2.80;;;1.80;;
73678;SDS011;61978;52.742;16.962;2023-07-13T11:14:27;2.40;;;1.60;;
73678;SDS011;61978;52.742;16.962;2023-07-13T11:16:53;3.80;;;1.70;;
73678;SDS011;61978;52.742;16.962;2023-07-13T11:24:59;5.90;;;1.80;;
73678;SDS011;61978;52.742;16.962;2023-07-13T11:27:41;6.30;;;2.10;;
73678;SDS011;61978;52.742;16.962;2023-07-13T11:32:39;8.30;;;2.00;;
73678;SDS011;61978;52.742;16.962;2023-07-13T11:35:08;1.70;;;1.60;;
73678;SDS011;61978;52.742;16.962;2023-07-13T11:37:38;2.50;;;1.40;;
73678;SDS011;61978;52.742;16.962;2023-07-13T11:40:11;3.70;;;1.80;;
73678;SDS011;61978;52.742;16.962;2023-07-13T11:42:39;4.00;;;1.40;;
73678;SDS011;61978;52.742;16.962;2023-07-13T11:45:12;4.40;;;1.90;;
73678;SDS011;61978;52.742;16.962;2023-07-13T11:47:43;4.70;;;1.80;;
73678;SDS011;61978;52.742;16.962;2023-07-13T11:50:20;8.20;;;1.50;;
73678;SDS011;61978;52.742;16.962;2023-07-13T11:52:46;3.80;;;1.20;;
73678;SDS011;61978;52.742;16.962;2023-07-13T11:55:18;4.40;;;1.70;;
73678;SDS011;61978;52.742;16.962;2023-07-13T11:57:50;7.40;;;2.10;;
73678;SDS011;61978;52.742;16.962;2023-07-13T12:00:28;3.10;;;1.20;;
73678;SDS011;61978;52.742;16.962;2023-07-13T12:02:56;4.20;;;1.50;;
73678;SDS011;61978;52.742;16.962;2023-07-13T12:05:22;2.00;;;0.80;;
73678;SDS011;61978;52.742;16.962;2023-07-13T12:07:49;2.90;;;0.90;;
73678;SDS011;61978;52.742;16.962;2023-07-13T12:10:25;3.00;;;1.20;;
73678;SDS011;61978;52.742;16.962;2023-07-13T12:15:41;1.80;;;1.10;;
73678;SDS011;61978;52.742;16.962;2023-07-13T12:18:15;1.10;;;0.80;;
73678;SDS011;61978;52.742;16.962;2023-07-13T12:25:51;7.30;;;1.00;;
73678;SDS011;61978;52.742;16.962;2023-07-13T12:28:20;5.20;;;1.00;;
73678;SDS011;61978;52.742;16.962;2023-07-13T12:30:47;1.10;;;0.90;;
73678;SDS011;61978;52.742;16.962;2023-07-13T12:33:15;3.80;;;1.00;;
73678;SDS011;61978;52.742;16.962;2023-07-13T12:35:42;2.30;;;0.80;;
73678;SDS011;61978;52.742;16.962;2023-07-13T12:38:18;1.30;;;0.70;;
73678;SDS011;61978;52.742;16.962;2023-07-13T12:40:53;3.80;;;0.90;;
73678;SDS011;61978;52.742;16.962;2023-07-13T12:43:22;5.90;;;0.80;;
73678;SDS011;61978;52.742;16.962;2023-07-13T12:45:58;1.70;;;0.50;;
73678;SDS011;61978;52.742;16.962;2023-07-13T12:48:25;2.30;;;0.70;;
73678;SDS011;61978;52.742;16.962;2023-07-13T12:50:51;3.00;;;1.20;;
73678;SDS011;61978;52.742;16.962;2023-07-13T12:53:20;5.00;;;0.80;;
73678;SDS011;61978;52.742;16.962;2023-07-13T12:55:47;2.20;;;1.10;;
73678;SDS011;61978;52.742;16.962;2023-07-13T12:58:16;3.30;;;0.80;;
73678;SDS011;61978;52.742;16.962;2023-07-13T13:00:44;3.70;;;1.10;;
73678;SDS011;61978;52.742;16.962;2023-07-13T13:03:18;3.90;;;0.90;;
73678;SDS011;61978;52.742;16.962;2023-07-13T13:05:46;3.20;;;1.00;;
73678;SDS011;61978;52.742;16.962;2023-07-13T13:08:12;2.50;;;0.70;;
73678;SDS011;61978;52.742;16.962;2023-07-13T13:10:39;1.00;;;0.50;;
73678;SDS011;61978;52.742;16.962;2023-07-13T13:13:05;3.50;;;0.90;;
73678;SDS011;61978;52.742;16.962;2023-07-13T13:15:30;6.80;;;1.20;;
73678;SDS011;61978;52.742;16.962;2023-07-13T13:17:56;3.10;;;1.10;;
73678;SDS011;61978;52.742;16.962;2023-07-13T13:20:24;4.50;;;0.60;;
73678;SDS011;61978;52.742;16.962;2023-07-13T13:22:51;0.90;;;0.80;;
73678;SDS011;61978;52.742;16.962;2023-07-13T13:25:17;8.00;;;1.20;;
73678;SDS011;61978;52.742;16.962;2023-07-13T13:27:44;4.10;;;0.70;;
73678;SDS011;61978;52.742;16.962;2023-07-13T13:30:14;2.70;;;0.90;;
73678;SDS011;61978;52.742;16.962;2023-07-13T13:32:41;0.80;;;0.80;;
73678;SDS011;61978;52.742;16.962;2023-07-13T13:35:12;3.10;;;1.10;;
73678;SDS011;61978;52.742;16.962;2023-07-13T13:37:39;2.20;;;0.90;;
73678;SDS011;61978;52.742;16.962;2023-07-13T13:40:12;2.20;;;1.30;;
73678;SDS011;61978;52.742;16.962;2023-07-13T13:42:38;2.50;;;1.30;;
73678;SDS011;61978;52.742;16.962;2023-07-13T13:45:07;6.60;;;0.90;;
73678;SDS011;61978;52.742;16.962;2023-07-13T13:47:32;2.10;;;1.00;;
73678;SDS011;61978;52.742;16.962;2023-07-13T13:49:58;1.30;;;1.00;;
73678;SDS011;61978;52.742;16.962;2023-07-13T13:52:25;3.10;;;1.10;;
73678;SDS011;61978;52.742;16.962;2023-07-13T13:54:51;1.90;;;0.70;;
73678;SDS011;61978;52.742;16.962;2023-07-13T13:57:22;1.10;;;0.70;;
73678;SDS011;61978;52.742;16.962;2023-07-13T13:59:49;3.70;;;0.60;;
73678;SDS011;61978;52.742;16.962;2023-07-13T14:04:53;1.70;;;0.70;;
73678;SDS011;61978;52.742;16.962;2023-07-13T14:07:20;6.20;;;1.00;;
73678;SDS011;61978;52.742;16.962;2023-07-13T14:09:45;1.60;;;0.70;;
73678;SDS011;61978;52.742;16.962;2023-07-13T14:12:12;9.90;;;0.80;;
73678;SDS011;61978;52.742;16.962;2023-07-13T14:14:38;1.20;;;0.80;;
73678;SDS011;61978;52.742;16.962;2023-07-13T14:17:05;6.10;;;0.90;;
73678;SDS011;61978;52.742;16.962;2023-07-13T14:19:30;3.70;;;0.60;;
73678;SDS011;61978;52.742;16.962;2023-07-13T14:21:57;1.80;;;0.90;;
73678;SDS011;61978;52.742;16.962;2023-07-13T14:24:23;1.50;;;0.60;;
73678;SDS011;61978;52.742;16.962;2023-07-13T14:26:49;1.20;;;0.70;;
73678;SDS011;61978;52.742;16.962;2023-07-13T14:29:16;2.00;;;0.80;;
73678;SDS011;61978;52.742;16.962;2023-07-13T14:31:43;4.20;;;1.20;;
73678;SDS011;61978;52.742;16.962;2023-07-13T14:34:10;4.00;;;1.10;;
73678;SDS011;61978;52.742;16.962;2023-07-13T14:36:38;3.40;;;0.70;;
73678;SDS011;61978;52.742;16.962;2023-07-13T14:39:25;4.20;;;0.90;;
73678;SDS011;61978;52.742;16.962;2023-07-13T14:41:53;4.70;;;0.90;;
73678;SDS011;61978;52.742;16.962;2023-07-13T14:44:24;2.50;;;0.90;;
73678;SDS011;61978;52.742;16.962;2023-07-13T14:46:50;4.80;;;0.90;;
73678;SDS011;61978;52.742;16.962;2023-07-13T14:49:23;1.80;;;0.70;;
73678;SDS011;61978;52.742;16.962;2023-07-13T14:51:50;4.30;;;0.70;;
73678;SDS011;61978;52.742;16.962;2023-07-13T14:54:16;1.90;;;0.80;;
73678;SDS011;61978;52.742;16.962;2023-07-13T14:56:41;3.50;;;0.80;;
73678;SDS011;61978;52.742;16.962;2023-07-13T14:59:07;4.20;;;0.90;;
73678;SDS011;61978;52.742;16.962;2023-07-13T15:01:34;1.60;;;0.90;;
73678;SDS011;61978;52.742;16.962;2023-07-13T15:04:00;5.30;;;1.00;;
73678;SDS011;61978;52.742;16.962;2023-07-13T15:06:26;5.10;;;0.60;;
73678;SDS011;61978;52.742;16.962;2023-07-13T15:08:51;4.10;;;1.00;;
73678;SDS011;61978;52.742;16.962;2023-07-13T15:11:17;3.50;;;1.10;;
73678;SDS011;61978;52.742;16.962;2023-07-13T15:13:43;6.70;;;1.00;;
73678;SDS011;61978;52.742;16.962;2023-07-13T15:16:17;5.20;;;1.20;;
73678;SDS011;61978;52.742;16.962;2023-07-13T15:18:44;2.00;;;0.80;;
73678;SDS011;61978;52.742;16.962;2023-07-13T15:21:10;6.40;;;1.50;;
73678;SDS011;61978;52.742;16.962;2023-07-13T15:23:39;3.30;;;1.10;;